createdAt,value
2022-11-10T00:00:49.486Z,51.20
2022-11-10T00:03:52.829Z,52.40
2022-11-10T00:07:14.428Z,52.90
2022-11-10T00:10:31.572Z,51.60
2022-11-10T00:13:35.828Z,52.40
2022-11-10T00:16:56.134Z,54.80
2022-11-10T00:19:58.252Z,51.00
2022-11-10T00:22:59.941Z,55.10
2022-11-10T00:26:01.942Z,50.00
2022-11-10T00:29:03.752Z,53.20
2022-11-10T00:32:05.426Z,57.10
2022-11-10T00:35:07.878Z,50.10
2022-11-10T00:38:10.104Z,53.60
2022-11-10T00:41:12.161Z,52.10
2022-11-10T00:44:13.882Z,51.10
2022-11-10T00:50:17.450Z,47.30
2022-11-10T00:56:22.888Z,50.70
2022-11-10T00:59:24.553Z,50.50
2022-11-10T01:02:26.283Z,54.80
2022-11-10T01:11:31.552Z,50.50
2022-11-10T01:14:33.205Z,48.10
2022-11-10T01:17:35.020Z,49.90
2022-11-10T01:20:36.684Z,50.70
2022-11-10T01:23:38.584Z,49.20
2022-11-10T01:29:41.950Z,45.60
2022-11-10T01:32:43.855Z,45.70
2022-11-10T01:38:47.774Z,45.20
2022-11-10T01:45:22.661Z,44.70
2022-11-10T01:48:30.493Z,43.00
2022-11-10T01:51:35.546Z,44.50
2022-11-10T01:54:41.334Z,47.60
2022-11-10T01:57:43.671Z,46.10
2022-11-10T02:00:45.464Z,46.50
2022-11-10T02:06:56.469Z,47.40
2022-11-10T02:09:58.097Z,47.50
2022-11-10T02:12:59.820Z,46.30
2022-11-10T02:16:01.510Z,55.30
2022-11-10T02:22:19.675Z,46.30
2022-11-10T02:25:22.460Z,51.90
2022-11-10T02:28:25.634Z,48.50
2022-11-10T02:31:27.297Z,44.30
2022-11-10T02:34:28.982Z,45.30
2022-11-10T02:37:30.818Z,46.00
2022-11-10T02:43:34.604Z,46.80
2022-11-10T02:46:37.752Z,48.80
2022-11-10T02:49:39.400Z,53.40
2022-11-10T02:52:41.067Z,50.20
2022-11-10T02:55:42.754Z,52.40
2022-11-10T02:58:44.420Z,51.00
2022-11-10T03:01:46.141Z,54.10
2022-11-10T03:04:47.797Z,50.80
2022-11-10T03:07:54.181Z,48.60
2022-11-10T03:10:56.687Z,48.50
2022-11-10T03:14:02.025Z,49.60
2022-11-10T03:17:04.642Z,51.10
2022-11-10T03:20:06.619Z,49.30
2022-11-10T03:23:08.561Z,51.00
2022-11-10T03:26:10.256Z,51.00
2022-11-10T03:29:11.931Z,49.90
2022-11-10T03:32:13.677Z,52.60
2022-11-10T03:38:17.439Z,49.80
2022-11-10T03:41:20.462Z,50.30
2022-11-10T03:44:22.705Z,53.60
2022-11-10T03:47:24.657Z,58.10
2022-11-10T03:50:26.237Z,54.50
2022-11-10T03:53:27.864Z,56.70
2022-11-10T03:56:29.634Z,63.50
2022-11-10T04:02:33.255Z,64.20
2022-11-10T04:09:01.014Z,79.60
2022-11-10T04:12:24.888Z,90.10
2022-11-10T04:15:42.127Z,91.30
2022-11-10T04:18:43.737Z,92.70
2022-11-10T04:21:45.513Z,99.20
2022-11-10T04:27:48.960Z,97.70
2022-11-10T04:33:53.001Z,94.30
2022-11-10T04:36:54.700Z,96.40
2022-11-10T04:42:57.945Z,97.30
2022-11-10T04:49:01.669Z,99.00
2022-11-10T04:52:03.514Z,99.10
2022-11-10T04:55:05.743Z,96.00
2022-11-10T04:58:07.344Z,98.60
2022-11-10T05:01:20.624Z,103.00
2022-11-10T05:04:22.388Z,96.40
2022-11-10T05:10:26.248Z,93.90
2022-11-10T05:13:28.161Z,91.30
2022-11-10T05:16:29.805Z,86.30
2022-11-10T05:22:32.995Z,89.50
2022-11-10T05:28:38.452Z,80.50
2022-11-10T05:31:40.071Z,79.10
2022-11-10T05:37:43.575Z,75.10
2022-11-10T05:40:45.260Z,71.80
2022-11-10T05:43:47.456Z,74.90
2022-11-10T05:46:49.083Z,71.40
2022-11-10T05:52:53.851Z,72.90
2022-11-10T05:55:55.652Z,70.20
2022-11-10T05:58:57.254Z,64.90
2022-11-10T06:05:00.553Z,66.00
2022-11-10T06:11:04.803Z,59.00
2022-11-10T06:14:06.374Z,59.90
2022-11-10T06:17:08.056Z,59.80
2022-11-10T06:23:12.893Z,57.60
2022-11-10T06:26:14.549Z,62.90
2022-11-10T06:32:18.321Z,66.00
2022-11-10T06:38:22.271Z,76.00
2022-11-10T06:44:27.357Z,81.10
2022-11-10T06:50:31.717Z,84.40
2022-11-10T06:53:33.609Z,80.10
2022-11-10T06:56:35.759Z,73.80
2022-11-10T06:59:37.476Z,72.30
2022-11-10T07:05:40.569Z,65.60
2022-11-10T07:11:43.975Z,65.30
2022-11-10T07:14:45.577Z,64.10
2022-11-10T07:20:48.880Z,65.40
2022-11-10T07:23:50.540Z,63.40
2022-11-10T07:29:53.917Z,61.40
2022-11-10T07:33:12.476Z,59.20
2022-11-10T07:36:14.402Z,60.10
2022-11-10T07:39:16.224Z,59.40
2022-11-10T07:42:17.904Z,60.20
2022-11-10T07:48:21.205Z,55.60
2022-11-10T07:51:22.940Z,57.30
2022-11-10T07:54:24.527Z,56.50
2022-11-10T08:00:28.458Z,53.90
2022-11-10T08:03:30.266Z,55.50
2022-11-10T08:06:36.131Z,54.20
2022-11-10T08:09:38.235Z,53.10
2022-11-10T08:12:39.863Z,54.20
2022-11-10T08:15:42.119Z,57.50
2022-11-10T08:18:43.765Z,57.10
2022-11-10T08:21:45.518Z,59.90
2022-11-10T08:24:47.278Z,57.60
2022-11-10T08:27:48.975Z,59.00
2022-11-10T08:30:50.655Z,62.10
2022-11-10T08:33:52.576Z,63.10
2022-11-10T08:36:54.278Z,60.90
2022-11-10T08:39:56.024Z,60.60
2022-11-10T08:42:59.809Z,58.50
2022-11-10T08:46:03.971Z,60.80
2022-11-10T08:49:05.682Z,60.10
2022-11-10T08:52:07.448Z,55.70
2022-11-10T08:55:09.479Z,60.50
2022-11-10T08:58:16.640Z,61.10
2022-11-10T09:01:18.222Z,61.00
2022-11-10T09:07:22.407Z,58.70
2022-11-10T09:10:24.185Z,62.70
2022-11-10T09:13:29.779Z,60.90
2022-11-10T09:16:32.314Z,59.20
2022-11-10T09:19:34.169Z,60.00
2022-11-10T09:22:36.858Z,62.20
2022-11-10T09:25:39.225Z,64.40
2022-11-10T09:28:40.914Z,62.10
2022-11-10T09:31:44.915Z,60.80
2022-11-10T09:34:48.947Z,63.00
2022-11-10T09:37:54.600Z,59.60
2022-11-10T09:41:03.026Z,63.30
2022-11-10T09:44:16.718Z,62.30
2022-11-10T09:47:50.802Z,62.80
2022-11-10T09:51:06.080Z,57.90
2022-11-10T09:54:16.942Z,63.70
2022-11-10T09:57:21.993Z,60.10
2022-11-10T10:00:23.646Z,61.20
2022-11-10T10:03:28.594Z,59.10
2022-11-10T10:06:43.665Z,57.40
2022-11-10T10:09:52.283Z,55.70
2022-11-10T10:13:31.353Z,57.60
2022-11-10T10:16:59.609Z,59.70
2022-11-10T10:20:04.165Z,56.00
2022-11-10T10:24:02.163Z,56.60
2022-11-10T10:26:54.704Z,52.70
2022-11-10T10:29:56.454Z,50.60
2022-11-10T10:33:14.489Z,49.20
2022-11-10T10:36:28.290Z,48.60
2022-11-10T10:39:37.073Z,48.30
2022-11-10T10:42:38.760Z,47.70
2022-11-10T10:45:42.429Z,46.60
2022-11-10T10:48:44.294Z,49.80
2022-11-10T10:51:46.177Z,49.30
2022-11-10T10:54:47.784Z,49.70
2022-11-10T10:57:58.331Z,47.50
2022-11-10T11:01:15.633Z,50.30
2022-11-10T11:04:30.110Z,50.30
2022-11-10T11:07:31.708Z,50.80
2022-11-10T11:10:35.501Z,50.30
2022-11-10T11:13:37.778Z,49.40
2022-11-10T11:16:56.351Z,49.30
2022-11-10T11:20:00.008Z,49.50
2022-11-10T11:23:34.438Z,47.70
2022-11-10T11:26:50.509Z,49.10
2022-11-10T11:30:15.809Z,46.80
2022-11-10T11:33:21.444Z,48.00
2022-11-10T11:36:34.051Z,48.80
2022-11-10T11:39:52.109Z,48.20
2022-11-10T11:43:15.724Z,47.60
2022-11-10T11:46:35.012Z,45.70
2022-11-10T11:49:59.111Z,45.30
2022-11-10T11:53:18.763Z,45.60
2022-11-10T11:56:28.761Z,45.70
2022-11-10T11:59:36.439Z,45.80
2022-11-10T12:02:52.430Z,46.20
2022-11-10T12:06:12.860Z,45.00
2022-11-10T12:09:30.173Z,47.50
2022-11-10T12:12:53.507Z,46.80
2022-11-10T12:16:01.520Z,46.10
2022-11-10T12:19:33.397Z,46.00
2022-11-10T12:22:48.324Z,45.40
2022-11-10T12:26:12.939Z,46.50
2022-11-10T12:29:41.966Z,46.80
2022-11-10T12:32:55.883Z,42.40
2022-11-10T12:35:58.579Z,41.90
2022-11-10T12:39:11.194Z,42.30
2022-11-10T12:42:18.163Z,42.30
2022-11-10T12:45:34.178Z,41.60
2022-11-10T12:48:46.977Z,40.50
2022-11-10T12:52:12.494Z,44.70
2022-11-10T12:55:14.950Z,43.00
2022-11-10T12:58:18.243Z,43.20
2022-11-10T13:01:20.413Z,41.90
2022-11-10T13:04:22.294Z,41.50
2022-11-10T13:07:24.442Z,40.50
2022-11-10T13:10:28.036Z,42.70
2022-11-10T13:13:31.001Z,41.70
2022-11-10T13:16:41.583Z,41.60
2022-11-10T13:19:43.524Z,41.50
2022-11-10T13:22:45.252Z,42.50
2022-11-10T13:25:54.407Z,41.60
2022-11-10T13:28:58.487Z,39.60
2022-11-10T13:32:30.660Z,39.70
2022-11-10T13:35:38.410Z,37.50
2022-11-10T13:38:44.450Z,38.50
2022-11-10T13:42:01.100Z,39.00
2022-11-10T13:45:27.862Z,38.50
2022-11-10T13:48:32.977Z,39.50
2022-11-10T13:51:44.697Z,40.00
2022-11-10T13:55:03.610Z,37.40
2022-11-10T13:58:09.410Z,39.10
2022-11-10T14:01:17.231Z,40.10
2022-11-10T14:04:40.627Z,40.50
2022-11-10T14:07:45.090Z,38.80
2022-11-10T14:10:52.566Z,40.00
2022-11-10T14:14:01.137Z,41.30
2022-11-10T14:17:03.459Z,42.20
2022-11-10T14:20:21.671Z,39.50
2022-11-10T14:23:29.667Z,42.60
2022-11-10T14:26:42.630Z,39.80
2022-11-10T14:29:44.714Z,41.30
2022-11-10T14:33:05.045Z,41.50
2022-11-10T14:36:10.182Z,40.20
2022-11-10T14:39:14.903Z,41.70
2022-11-10T14:42:22.697Z,41.70
2022-11-10T14:45:28.429Z,41.10
2022-11-10T14:48:38.046Z,43.20
2022-11-10T14:51:40.296Z,43.20
2022-11-10T14:54:44.836Z,45.10
2022-11-10T14:57:49.664Z,44.70
2022-11-10T15:00:51.802Z,46.10
2022-11-10T15:03:53.700Z,46.60
2022-11-10T15:06:56.828Z,50.30
2022-11-10T15:10:15.975Z,51.30
2022-11-10T15:13:26.950Z,50.20
2022-11-10T15:16:30.726Z,47.30
2022-11-10T15:19:37.064Z,48.30
2022-11-10T15:22:38.688Z,48.30
2022-11-10T15:25:41.175Z,48.20
2022-11-10T15:28:43.375Z,48.90
2022-11-10T15:31:45.520Z,48.40
2022-11-10T15:34:48.187Z,46.10
2022-11-10T15:38:19.623Z,48.40
2022-11-10T15:41:27.160Z,47.00
2022-11-10T15:44:29.203Z,44.30
2022-11-10T15:47:31.064Z,45.70
2022-11-10T15:50:32.727Z,44.40
2022-11-10T15:53:40.501Z,45.80
2022-11-10T15:56:42.380Z,45.50
2022-11-10T15:59:44.253Z,44.90
2022-11-10T16:02:46.052Z,47.00
2022-11-10T16:05:48.597Z,46.80
2022-11-10T16:08:50.213Z,46.80
2022-11-10T16:11:51.971Z,47.40
2022-11-10T16:14:53.858Z,47.20
2022-11-10T16:17:57.386Z,45.80
2022-11-10T16:20:59.061Z,48.30
2022-11-10T16:24:00.671Z,47.00
2022-11-10T16:27:05.714Z,48.20
2022-11-10T16:30:13.606Z,48.10
2022-11-10T16:33:16.998Z,46.90
2022-11-10T16:36:29.251Z,45.80
2022-11-10T16:39:31.872Z,44.70
2022-11-10T16:42:33.494Z,45.20
2022-11-10T16:45:35.269Z,45.60
2022-11-10T16:48:37.788Z,47.10
2022-11-10T16:51:47.275Z,47.50
2022-11-10T16:54:50.549Z,49.60
2022-11-10T16:57:52.185Z,48.40
2022-11-10T17:00:57.462Z,44.30
2022-11-10T17:04:01.621Z,42.90
2022-11-10T17:07:03.614Z,41.70
2022-11-10T17:10:06.497Z,43.70
2022-11-10T17:13:11.322Z,39.90
2022-11-10T17:16:26.377Z,40.10
2022-11-10T17:19:28.087Z,39.50
2022-11-10T17:22:32.119Z,41.50
2022-11-10T17:25:35.518Z,42.20
2022-11-10T17:28:37.324Z,41.80
2022-11-10T17:31:38.945Z,51.60
2022-11-10T17:34:40.496Z,60.80
2022-11-10T17:37:43.687Z,66.40
2022-11-10T17:40:45.463Z,61.10
2022-11-10T17:43:47.664Z,59.60
2022-11-10T17:46:49.245Z,61.10
2022-11-10T17:49:50.906Z,60.10
2022-11-10T17:52:52.801Z,55.10
2022-11-10T17:55:54.415Z,60.90
2022-11-10T17:58:56.062Z,55.50
2022-11-10T18:01:58.321Z,49.10
2022-11-10T18:05:00.231Z,49.10
2022-11-10T18:08:02.083Z,40.30
2022-11-10T18:11:03.780Z,37.70
2022-11-10T18:14:05.551Z,37.70
2022-11-10T18:17:07.193Z,35.20
2022-11-10T18:20:10.204Z,36.00
2022-11-10T18:23:13.014Z,37.80
2022-11-10T18:26:14.684Z,38.90
2022-11-10T18:29:16.295Z,40.90
2022-11-10T18:32:17.967Z,39.40
2022-11-10T18:35:19.777Z,37.00
2022-11-10T18:38:21.481Z,40.30
2022-11-10T18:41:41.822Z,39.50
2022-11-10T18:44:43.644Z,38.70
2022-11-10T18:47:45.416Z,44.50
2022-11-10T18:50:47.195Z,42.90
2022-11-10T18:53:48.760Z,43.30
2022-11-10T18:56:50.970Z,43.90
2022-11-10T18:59:52.654Z,43.00
2022-11-10T19:02:55.404Z,44.00
2022-11-10T19:05:58.925Z,46.40
2022-11-10T19:09:00.716Z,44.60
2022-11-10T19:12:02.349Z,43.00
2022-11-10T19:15:04.634Z,42.30
2022-11-10T19:18:06.447Z,43.30
2022-11-10T19:21:20.330Z,45.80
2022-11-10T19:24:27.775Z,43.40
2022-11-10T19:27:30.578Z,45.00
2022-11-10T19:30:32.235Z,44.40
2022-11-10T19:33:36.125Z,44.90
2022-11-10T19:36:38.152Z,45.80
2022-11-10T19:39:40.149Z,45.20
2022-11-10T19:42:41.857Z,45.50
2022-11-10T19:45:43.515Z,45.40
2022-11-10T19:48:45.333Z,45.50
2022-11-10T19:51:49.304Z,47.20
2022-11-10T19:54:50.869Z,48.30
2022-11-10T19:57:52.571Z,47.50
2022-11-10T20:00:54.981Z,48.60
2022-11-10T20:03:56.633Z,50.30
2022-11-10T20:07:27.618Z,48.80
2022-11-10T20:10:30.348Z,47.80
2022-11-10T20:13:32.857Z,49.20
2022-11-10T20:16:34.571Z,48.30
2022-11-10T20:19:40.941Z,50.60
2022-11-10T20:22:43.242Z,52.10
2022-11-10T20:25:45.021Z,52.90
2022-11-10T20:28:47.441Z,53.20
2022-11-10T20:31:49.088Z,56.30
2022-11-10T20:34:50.923Z,52.90
2022-11-10T20:37:52.701Z,53.10
2022-11-10T20:41:02.537Z,53.70
2022-11-10T20:44:04.229Z,52.70
2022-11-10T20:47:05.970Z,55.20
2022-11-10T20:50:13.138Z,53.70
2022-11-10T20:53:16.643Z,53.40
2022-11-10T20:56:18.369Z,55.40
2022-11-10T20:59:20.184Z,56.10
2022-11-10T21:02:21.958Z,54.80
2022-11-10T21:05:23.589Z,57.90
2022-11-10T21:14:47.760Z,59.60
2022-11-10T21:17:49.417Z,60.90
2022-11-10T21:20:51.689Z,58.30
2022-11-10T21:23:57.562Z,61.20
2022-11-10T21:26:59.354Z,63.80
2022-11-10T21:30:01.064Z,65.30
2022-11-10T21:33:05.921Z,64.90
2022-11-10T21:36:08.380Z,59.00
2022-11-10T21:39:10.049Z,66.70
2022-11-10T21:45:13.301Z,62.50
2022-11-10T21:51:16.842Z,63.90
2022-11-10T21:54:18.421Z,65.00
2022-11-10T22:00:21.780Z,63.10
2022-11-10T22:03:23.625Z,66.80
2022-11-10T22:06:45.903Z,64.30
2022-11-10T22:10:06.570Z,64.20
2022-11-10T22:13:34.460Z,65.50
2022-11-10T22:17:06.967Z,64.50
2022-11-10T22:20:08.831Z,62.90
2022-11-10T22:23:11.700Z,65.40
2022-11-10T22:26:13.427Z,65.40
2022-11-10T22:29:15.211Z,65.40
2022-11-10T22:32:16.944Z,63.60
2022-11-10T22:35:37.519Z,71.80
2022-11-10T22:38:41.366Z,70.10
2022-11-10T22:42:02.070Z,69.70
2022-11-10T22:45:03.886Z,68.70
2022-11-10T22:48:24.094Z,70.30
2022-11-10T22:51:30.508Z,69.10
2022-11-10T22:54:32.071Z,67.70
2022-11-10T23:00:35.318Z,66.70
2022-11-10T23:06:39.130Z,64.30
2022-11-10T23:09:40.790Z,65.50
2022-11-10T23:12:42.400Z,64.30
2022-11-10T23:18:49.708Z,60.30
2022-11-10T23:21:51.326Z,64.00
2022-11-10T23:24:56.926Z,61.30
2022-11-10T23:27:59.533Z,61.60
2022-11-10T23:31:06.974Z,62.80
2022-11-10T23:34:08.897Z,63.10
2022-11-10T23:37:10.513Z,63.40
2022-11-10T23:46:15.939Z,61.20
2022-11-10T23:49:17.578Z,68.80
2022-11-10T23:55:20.939Z,70.50
